sensor_id;sensor_type;location;lat;lon;timestamp;pressure;altitude;pressure_sealevel;temperature;humidity
48968;BME280;46511;53.148;8.204;2023-08-06T00:00:56;100766.50;;;16.02;100.00
48968;BME280;46511;53.148;8.204;2023-08-06T00:03:27;100762.94;;;16.01;100.00
48968;BME280;46511;53.148;8.204;2023-08-06T00:05:58;100758.31;;;16.03;100.00
48968;BME280;46511;53.148;8.204;2023-08-06T00:08:30;100751.97;;;15.70;100.00
48968;BME280;46511;53.148;8.204;2023-08-06T00:11:01;100763.00;;;15.55;100.00
48968;BME280;46511;53.148;8.204;2023-08-06T00:13:32;100754.38;;;15.62;100.00
48968;BME280;46511;53.148;8.204;2023-08-06T00:16:10;100748.25;;;15.49;100.00
48968;BME280;46511;53.148;8.204;2023-08-06T00:18:44;100752.69;;;15.61;100.00
48968;BME280;46511;53.148;8.204;2023-08-06T00:21:15;100750.00;;;15.61;100.00
48968;BME280;46511;53.148;8.204;2023-08-06T00:23:46;100751.19;;;15.57;100.00
48968;BME280;46511;53.148;8.204;2023-08-06T00:26:17;100748.72;;;15.43;100.00
48968;BME280;46511;53.148;8.204;2023-08-06T00:28:49;100744.00;;;15.58;100.00
48968;BME280;46511;53.148;8.204;2023-08-06T00:31:20;100749.38;;;15.58;100.00
48968;BME280;46511;53.148;8.204;2023-08-06T00:33:52;100743.63;;;15.40;100.00
48968;BME280;46511;53.148;8.204;2023-08-06T00:36:23;100744.31;;;15.66;100.00
48968;BME280;46511;53.148;8.204;2023-08-06T00:38:54;100751.19;;;15.57;100.00
48968;BME280;46511;53.148;8.204;2023-08-06T00:41:26;100746.03;;;15.43;100.00
48968;BME280;46511;53.148;8.204;2023-08-06T00:43:58;100748.19;;;15.62;100.00
48968;BME280;46511;53.148;8.204;2023-08-06T00:46:29;100746.97;;;15.66;100.00
48968;BME280;46511;53.148;8.204;2023-08-06T00:49:02;100746.59;;;15.82;100.00
48968;BME280;46511;53.148;8.204;2023-08-06T00:51:34;100746.25;;;15.75;100.00
48968;BME280;46511;53.148;8.204;2023-08-06T00:54:06;100739.69;;;15.79;100.00
48968;BME280;46511;53.148;8.204;2023-08-06T00:56:37;100744.66;;;15.73;100.00
48968;BME280;46511;53.148;8.204;2023-08-06T00:59:09;100746.13;;;15.99;100.00
48968;BME280;46511;53.148;8.204;2023-08-06T01:01:42;100742.97;;;15.83;100.00
48968;BME280;46511;53.148;8.204;2023-08-06T01:04:14;100742.00;;;15.84;100.00
48968;BME280;46511;53.148;8.204;2023-08-06T01:07:04;100738.09;;;15.77;100.00
48968;BME280;46511;53.148;8.204;2023-08-06T01:10:10;100732.38;;;15.81;100.00
48968;BME280;46511;53.148;8.204;2023-08-06T01:12:59;100727.63;;;15.85;100.00
48968;BME280;46511;53.148;8.204;2023-08-06T01:15:49;100727.63;;;15.85;100.00
48968;BME280;46511;53.148;8.204;2023-08-06T01:18:22;100716.66;;;15.88;100.00
48968;BME280;46511;53.148;8.204;2023-08-06T01:20:54;100719.34;;;15.99;100.00
48968;BME280;46511;53.148;8.204;2023-08-06T01:23:25;100723.22;;;16.06;100.00
48968;BME280;46511;53.148;8.204;2023-08-06T01:28:59;100722.75;;;15.79;100.00
48968;BME280;46511;53.148;8.204;2023-08-06T01:31:37;100721.53;;;15.94;100.00
48968;BME280;46511;53.148;8.204;2023-08-06T01:34:17;100715.44;;;15.81;100.00
48968;BME280;46511;53.148;8.204;2023-08-06T01:36:51;100707.28;;;15.71;100.00
48968;BME280;46511;53.148;8.204;2023-08-06T01:39:24;100711.06;;;15.91;100.00
48968;BME280;46511;53.148;8.204;2023-08-06T01:41:55;100711.31;;;15.88;100.00
48968;BME280;46511;53.148;8.204;2023-08-06T01:44:26;100699.84;;;15.97;100.00
48968;BME280;46511;53.148;8.204;2023-08-06T01:46:58;100700.34;;;15.91;100.00
48968;BME280;46511;53.148;8.204;2023-08-06T01:49:29;100694.75;;;15.94;100.00
48968;BME280;46511;53.148;8.204;2023-08-06T01:52:01;100695.72;;;15.82;100.00
48968;BME280;46511;53.148;8.204;2023-08-06T01:54:32;100691.19;;;16.05;100.00
48968;BME280;46511;53.148;8.204;2023-08-06T01:57:03;100687.06;;;16.00;100.00
48968;BME280;46511;53.148;8.204;2023-08-06T01:59:35;100691.84;;;15.75;100.00
48968;BME280;46511;53.148;8.204;2023-08-06T02:02:06;100692.44;;;15.89;100.00
48968;BME280;46511;53.148;8.204;2023-08-06T02:04:37;100689.50;;;16.04;100.00
48968;BME280;46511;53.148;8.204;2023-08-06T02:07:09;100691.84;;;15.86;100.00
48968;BME280;46511;53.148;8.204;2023-08-06T02:09:40;100686.22;;;15.78;100.00
48968;BME280;46511;53.148;8.204;2023-08-06T02:12:12;100687.59;;;15.83;100.00
48968;BME280;46511;53.148;8.204;2023-08-06T02:14:43;100681.81;;;15.99;100.00
48968;BME280;46511;53.148;8.204;2023-08-06T02:17:15;100685.47;;;15.98;100.00
48968;BME280;46511;53.148;8.204;2023-08-06T02:19:46;100675.88;;;15.84;100.00
48968;BME280;46511;53.148;8.204;2023-08-06T02:22:17;100676.59;;;15.97;100.00
48968;BME280;46511;53.148;8.204;2023-08-06T02:24:49;100676.56;;;16.09;100.00
48968;BME280;46511;53.148;8.204;2023-08-06T02:27:20;100672.31;;;16.06;100.00
48968;BME280;46511;53.148;8.204;2023-08-06T02:29:51;100673.81;;;15.88;100.00
48968;BME280;46511;53.148;8.204;2023-08-06T02:32:23;100677.22;;;15.90;100.00
48968;BME280;46511;53.148;8.204;2023-08-06T02:34:55;100675.94;;;16.16;100.00
48968;BME280;46511;53.148;8.204;2023-08-06T02:37:26;100677.63;;;16.28;100.00
48968;BME280;46511;53.148;8.204;2023-08-06T02:39:57;100672.78;;;16.22;100.00
48968;BME280;46511;53.148;8.204;2023-08-06T02:42:29;100663.78;;;16.01;100.00
48968;BME280;46511;53.148;8.204;2023-08-06T02:45:00;100660.88;;;16.04;100.00
48968;BME280;46511;53.148;8.204;2023-08-06T02:47:31;100666.38;;;16.03;100.00
48968;BME280;46511;53.148;8.204;2023-08-06T02:50:03;100666.25;;;15.93;100.00
48968;BME280;46511;53.148;8.204;2023-08-06T02:52:34;100665.75;;;15.99;100.00
48968;BME280;46511;53.148;8.204;2023-08-06T02:55:06;100663.66;;;16.14;100.00
48968;BME280;46511;53.148;8.204;2023-08-06T02:57:38;100656.34;;;16.16;100.00
48968;BME280;46511;53.148;8.204;2023-08-06T03:00:09;100647.00;;;15.99;100.00
48968;BME280;46511;53.148;8.204;2023-08-06T03:02:42;100651.63;;;15.97;100.00
48968;BME280;46511;53.148;8.204;2023-08-06T03:05:13;100642.34;;;16.01;100.00
48968;BME280;46511;53.148;8.204;2023-08-06T03:07:45;100640.16;;;16.06;100.00
48968;BME280;46511;53.148;8.204;2023-08-06T03:10:16;100636.16;;;16.00;100.00
48968;BME280;46511;53.148;8.204;2023-08-06T03:12:48;100638.25;;;15.86;100.00
48968;BME280;46511;53.148;8.204;2023-08-06T03:15:19;100639.69;;;15.90;100.00
48968;BME280;46511;53.148;8.204;2023-08-06T03:17:50;100628.00;;;16.02;100.00
48968;BME280;46511;53.148;8.204;2023-08-06T03:20:22;100635.28;;;16.00;100.00
48968;BME280;46511;53.148;8.204;2023-08-06T03:22:53;100629.97;;;15.89;100.00
48968;BME280;46511;53.148;8.204;2023-08-06T03:25:24;100623.63;;;15.90;100.00
48968;BME280;46511;53.148;8.204;2023-08-06T03:27:56;100625.09;;;15.94;100.00
48968;BME280;46511;53.148;8.204;2023-08-06T03:30:27;100621.06;;;15.88;100.00
48968;BME280;46511;53.148;8.204;2023-08-06T03:32:58;100622.88;;;15.99;100.00
48968;BME280;46511;53.148;8.204;2023-08-06T03:35:30;100610.22;;;15.90;100.00
48968;BME280;46511;53.148;8.204;2023-08-06T03:38:01;100610.47;;;15.98;100.00
48968;BME280;46511;53.148;8.204;2023-08-06T03:40:34;100599.47;;;16.01;100.00
48968;BME280;46511;53.148;8.204;2023-08-06T03:43:06;100597.09;;;15.87;100.00
48968;BME280;46511;53.148;8.204;2023-08-06T03:45:32;100590.50;;;15.91;100.00
48968;BME280;46511;53.148;8.204;2023-08-06T03:48:03;100596.63;;;15.70;100.00
48968;BME280;46511;53.148;8.204;2023-08-06T03:50:35;100598.22;;;15.84;100.00
48968;BME280;46511;53.148;8.204;2023-08-06T03:53:06;100600.75;;;15.86;100.00
48968;BME280;46511;53.148;8.204;2023-08-06T03:55:37;100603.34;;;15.65;100.00
48968;BME280;46511;53.148;8.204;2023-08-06T03:58:09;100606.38;;;15.60;100.00
48968;BME280;46511;53.148;8.204;2023-08-06T04:00:40;100601.16;;;15.70;100.00
48968;BME280;46511;53.148;8.204;2023-08-06T04:03:11;100600.16;;;15.71;100.00
48968;BME280;46511;53.148;8.204;2023-08-06T04:05:43;100591.50;;;15.79;100.00
48968;BME280;46511;53.148;8.204;2023-08-06T04:08:14;100598.44;;;15.81;100.00
48968;BME280;46511;53.148;8.204;2023-08-06T04:10:45;100588.34;;;15.85;100.00
48968;BME280;46511;53.148;8.204;2023-08-06T04:13:20;100591.78;;;15.64;100.00
48968;BME280;46511;53.148;8.204;2023-08-06T04:15:47;100593.25;;;15.68;100.00
48968;BME280;46511;53.148;8.204;2023-08-06T04:18:13;100590.63;;;15.89;100.00
48968;BME280;46511;53.148;8.204;2023-08-06T04:20:45;100592.22;;;15.81;100.00
48968;BME280;46511;53.148;8.204;2023-08-06T04:23:17;100605.63;;;15.81;100.00
48968;BME280;46511;53.148;8.204;2023-08-06T04:25:49;100602.72;;;15.84;100.00
48968;BME280;46511;53.148;8.204;2023-08-06T04:28:20;100603.69;;;15.71;100.00
48968;BME280;46511;53.148;8.204;2023-08-06T04:30:51;100608.53;;;15.89;100.00
48968;BME280;46511;53.148;8.204;2023-08-06T04:33:24;100606.38;;;15.83;100.00
48968;BME280;46511;53.148;8.204;2023-08-06T04:35:56;100605.38;;;15.73;100.00
48968;BME280;46511;53.148;8.204;2023-08-06T04:38:27;100606.63;;;15.68;100.00
48968;BME280;46511;53.148;8.204;2023-08-06T04:40:59;100607.59;;;15.79;100.00
48968;BME280;46511;53.148;8.204;2023-08-06T04:43:25;100607.34;;;15.70;100.00
48968;BME280;46511;53.148;8.204;2023-08-06T04:45:53;100604.78;;;15.80;100.00
48968;BME280;46511;53.148;8.204;2023-08-06T04:48:25;100599.75;;;15.98;100.00
48968;BME280;46511;53.148;8.204;2023-08-06T04:50:56;100604.16;;;15.88;100.00
48968;BME280;46511;53.148;8.204;2023-08-06T04:53:27;100596.09;;;15.99;100.00
48968;BME280;46511;53.148;8.204;2023-08-06T04:55:59;100600.47;;;16.11;100.00
48968;BME280;46511;53.148;8.204;2023-08-06T04:58:30;100602.94;;;15.81;100.00
48968;BME280;46511;53.148;8.204;2023-08-06T05:01:01;100606.84;;;15.88;100.00
48968;BME280;46511;53.148;8.204;2023-08-06T05:03:33;100596.00;;;15.89;100.00
48968;BME280;46511;53.148;8.204;2023-08-06T05:06:04;100601.72;;;16.28;100.00
48968;BME280;46511;53.148;8.204;2023-08-06T05:08:36;100598.53;;;16.02;100.00
48968;BME280;46511;53.148;8.204;2023-08-06T05:11:07;100601.22;;;15.91;100.00
48968;BME280;46511;53.148;8.204;2023-08-06T05:13:38;100601.56;;;16.29;100.00
48968;BME280;46511;53.148;8.204;2023-08-06T05:16:05;100600.31;;;16.45;100.00
48968;BME280;46511;53.148;8.204;2023-08-06T05:18:36;100597.69;;;16.34;100.00
48968;BME280;46511;53.148;8.204;2023-08-06T05:21:09;100605.72;;;16.02;100.00
48968;BME280;46511;53.148;8.204;2023-08-06T05:23:40;100606.91;;;16.41;100.00
48968;BME280;46511;53.148;8.204;2023-08-06T05:26:11;100593.50;;;16.41;100.00
48968;BME280;46511;53.148;8.204;2023-08-06T05:28:43;100601.59;;;16.82;100.00
48968;BME280;46511;53.148;8.204;2023-08-06T05:31:14;100597.47;;;17.30;100.00
48968;BME280;46511;53.148;8.204;2023-08-06T05:33:45;100599.38;;;16.88;100.00
48968;BME280;46511;53.148;8.204;2023-08-06T05:36:17;100598.63;;;16.85;100.00
48968;BME280;46511;53.148;8.204;2023-08-06T05:38:49;100598.19;;;16.80;100.00
48968;BME280;46511;53.148;8.204;2023-08-06T05:41:20;100599.09;;;16.91;100.00
48968;BME280;46511;53.148;8.204;2023-08-06T05:43:51;100600.22;;;16.88;100.00
48968;BME280;46511;53.148;8.204;2023-08-06T05:46:23;100599.94;;;16.49;100.00
48968;BME280;46511;53.148;8.204;2023-08-06T05:48:54;100605.38;;;16.59;100.00
48968;BME280;46511;53.148;8.204;2023-08-06T05:51:26;100616.88;;;16.50;100.00
48968;BME280;46511;53.148;8.204;2023-08-06T05:53:58;100610.81;;;16.37;100.00
48968;BME280;46511;53.148;8.204;2023-08-06T05:56:30;100610.91;;;16.46;100.00
48968;BME280;46511;53.148;8.204;2023-08-06T05:59:01;100613.13;;;16.41;100.00
48968;BME280;46511;53.148;8.204;2023-08-06T06:01:32;100613.00;;;16.43;100.00
48968;BME280;46511;53.148;8.204;2023-08-06T06:04:04;100612.94;;;16.54;100.00
48968;BME280;46511;53.148;8.204;2023-08-06T06:06:35;100616.19;;;16.69;100.00
48968;BME280;46511;53.148;8.204;2023-08-06T06:09:01;100618.66;;;17.02;100.00
48968;BME280;46511;53.148;8.204;2023-08-06T06:11:33;100612.44;;;17.53;100.00
48968;BME280;46511;53.148;8.204;2023-08-06T06:14:04;100600.31;;;18.67;100.00
48968;BME280;46511;53.148;8.204;2023-08-06T06:16:31;100579.22;;;18.33;100.00
48968;BME280;46511;53.148;8.204;2023-08-06T06:19:02;100585.22;;;17.77;100.00
48968;BME280;46511;53.148;8.204;2023-08-06T06:21:28;100590.63;;;17.47;100.00
48968;BME280;46511;53.148;8.204;2023-08-06T06:24:00;100581.84;;;17.45;100.00
48968;BME280;46511;53.148;8.204;2023-08-06T06:26:31;100583.25;;;17.39;100.00
48968;BME280;46511;53.148;8.204;2023-08-06T06:28:58;100587.59;;;17.70;100.00
48968;BME280;46511;53.148;8.204;2023-08-06T06:31:24;100586.25;;;17.95;100.00
48968;BME280;46511;53.148;8.204;2023-08-06T06:33:51;100582.88;;;17.93;100.00
48968;BME280;46511;53.148;8.204;2023-08-06T06:36:19;100577.78;;;18.48;100.00
48968;BME280;46511;53.148;8.204;2023-08-06T06:38:51;100577.06;;;18.56;100.00
48968;BME280;46511;53.148;8.204;2023-08-06T06:41:19;100577.78;;;18.48;100.00
48968;BME280;46511;53.148;8.204;2023-08-06T06:43:50;100577.75;;;18.87;100.00
48968;BME280;46511;53.148;8.204;2023-08-06T06:46:22;100579.03;;;19.30;100.00
48968;BME280;46511;53.148;8.204;2023-08-06T06:48:53;100578.66;;;19.80;100.00
48968;BME280;46511;53.148;8.204;2023-08-06T06:51:19;100564.75;;;20.56;100.00
48968;BME280;46511;53.148;8.204;2023-08-06T06:53:46;100561.06;;;20.03;100.00
48968;BME280;46511;53.148;8.204;2023-08-06T06:56:12;100550.06;;;21.02;100.00
48968;BME280;46511;53.148;8.204;2023-08-06T06:58:43;100552.22;;;20.72;100.00
48968;BME280;46511;53.148;8.204;2023-08-06T07:01:10;100552.31;;;20.63;100.00
48968;BME280;46511;53.148;8.204;2023-08-06T07:03:37;100551.66;;;20.07;100.00
48968;BME280;46511;53.148;8.204;2023-08-06T07:06:04;100565.69;;;19.93;100.00
48968;BME280;46511;53.148;8.204;2023-08-06T07:08:36;100564.63;;;20.83;100.00
48968;BME280;46511;53.148;8.204;2023-08-06T07:11:03;100557.97;;;22.22;100.00
48968;BME280;46511;53.148;8.204;2023-08-06T07:13:34;100535.84;;;23.70;100.00
48968;BME280;46511;53.148;8.204;2023-08-06T07:16:06;100544.06;;;24.31;100.00
48968;BME280;46511;53.148;8.204;2023-08-06T07:18:32;100543.88;;;23.86;100.00
48968;BME280;46511;53.148;8.204;2023-08-06T07:21:03;100548.13;;;22.45;100.00
48968;BME280;46511;53.148;8.204;2023-08-06T07:23:30;100549.44;;;22.01;100.00
48968;BME280;46511;53.148;8.204;2023-08-06T07:25:56;100543.19;;;22.00;100.00
48968;BME280;46511;53.148;8.204;2023-08-06T07:28:27;100541.72;;;22.55;100.00
48968;BME280;46511;53.148;8.204;2023-08-06T07:30:59;100550.84;;;22.13;100.00
48968;BME280;46511;53.148;8.204;2023-08-06T07:33:26;100554.53;;;22.04;100.00
48968;BME280;46511;53.148;8.204;2023-08-06T07:35:52;100542.72;;;22.45;100.00
48968;BME280;46511;53.148;8.204;2023-08-06T07:38:18;100544.50;;;24.65;100.00
48968;BME280;46511;53.148;8.204;2023-08-06T07:40:45;100544.16;;;24.98;100.00
48968;BME280;46511;53.148;8.204;2023-08-06T07:43:16;100547.78;;;24.38;100.00
48968;BME280;46511;53.148;8.204;2023-08-06T07:45:43;100549.81;;;22.79;100.00
48968;BME280;46511;53.148;8.204;2023-08-06T07:48:09;100547.75;;;23.53;100.00
48968;BME280;46511;53.148;8.204;2023-08-06T07:50:40;100552.34;;;24.14;100.00
48968;BME280;46511;53.148;8.204;2023-08-06T07:53:07;100542.41;;;27.27;100.00
48968;BME280;46511;53.148;8.204;2023-08-06T07:55:38;100542.97;;;27.50;100.00
48968;BME280;46511;53.148;8.204;2023-08-06T07:58:09;100539.06;;;26.05;100.00
48968;BME280;46511;53.148;8.204;2023-08-06T08:00:41;100539.88;;;26.41;100.00
48968;BME280;46511;53.148;8.204;2023-08-06T08:03:08;100543.38;;;26.35;100.00
48968;BME280;46511;53.148;8.204;2023-08-06T08:05:40;100542.34;;;25.64;100.00
48968;BME280;46511;53.148;8.204;2023-08-06T08:08:12;100537.81;;;27.69;100.00
48968;BME280;46511;53.148;8.204;2023-08-06T08:10:43;100534.56;;;30.47;90.90
48968;BME280;46511;53.148;8.204;2023-08-06T08:13:14;100541.91;;;29.18;88.33
48968;BME280;46511;53.148;8.204;2023-08-06T08:15:46;100533.75;;;31.33;85.92
48968;BME280;46511;53.148;8.204;2023-08-06T08:18:18;100525.22;;;31.22;74.49
48968;BME280;46511;53.148;8.204;2023-08-06T08:20:49;100533.06;;;27.97;94.61
48968;BME280;46511;53.148;8.204;2023-08-06T08:23:20;100531.09;;;32.23;75.76
48968;BME280;46511;53.148;8.204;2023-08-06T08:25:52;100528.75;;;28.56;91.65
48968;BME280;46511;53.148;8.204;2023-08-06T08:28:22;100521.09;;;29.24;93.48
48968;BME280;46511;53.148;8.204;2023-08-06T08:30:49;100526.59;;;28.25;96.48
48968;BME280;46511;53.148;8.204;2023-08-06T08:33:21;100519.19;;;29.24;90.78
48968;BME280;46511;53.148;8.204;2023-08-06T08:35:52;100519.91;;;28.40;96.91
48968;BME280;46511;53.148;8.204;2023-08-06T08:38:24;100522.00;;;31.44;81.73
48968;BME280;46511;53.148;8.204;2023-08-06T08:40:55;100512.53;;;32.06;75.81
48968;BME280;46511;53.148;8.204;2023-08-06T08:43:26;100503.81;;;32.09;60.85
48968;BME280;46511;53.148;8.204;2023-08-06T08:45:58;100505.19;;;31.22;75.39
48968;BME280;46511;53.148;8.204;2023-08-06T08:48:32;100492.97;;;31.18;75.49
48968;BME280;46511;53.148;8.204;2023-08-06T08:51:04;100499.00;;;32.82;69.15
48968;BME280;46511;53.148;8.204;2023-08-06T08:53:37;100490.28;;;34.51;57.16
48968;BME280;46511;53.148;8.204;2023-08-06T08:56:10;100487.06;;;32.88;56.82
48968;BME280;46511;53.148;8.204;2023-08-06T08:58:44;100488.22;;;34.97;56.26
48968;BME280;46511;53.148;8.204;2023-08-06T09:01:11;100480.88;;;37.01;47.09
48968;BME280;46511;53.148;8.204;2023-08-06T09:03:43;100478.63;;;35.65;50.75
48968;BME280;46511;53.148;8.204;2023-08-06T09:06:15;100487.91;;;36.08;47.62
48968;BME280;46511;53.148;8.204;2023-08-06T09:08:51;100485.41;;;36.06;46.31
48968;BME280;46511;53.148;8.204;2023-08-06T09:11:32;100483.69;;;37.79;44.03
48968;BME280;46511;53.148;8.204;2023-08-06T09:14:10;100480.63;;;32.05;60.05
48968;BME280;46511;53.148;8.204;2023-08-06T09:16:43;100479.59;;;31.58;81.15
48968;BME280;46511;53.148;8.204;2023-08-06T09:19:14;100489.22;;;32.62;69.50
48968;BME280;46511;53.148;8.204;2023-08-06T09:21:46;100478.72;;;34.37;50.69
48968;BME280;46511;53.148;8.204;2023-08-06T09:24:20;100472.50;;;34.42;52.46
48968;BME280;46511;53.148;8.204;2023-08-06T09:26:53;100480.97;;;35.34;43.68
48968;BME280;46511;53.148;8.204;2023-08-06T09:29:25;100480.69;;;33.91;52.69
48968;BME280;46511;53.148;8.204;2023-08-06T09:32:02;100478.69;;;34.87;51.38
48968;BME280;46511;53.148;8.204;2023-08-06T09:34:33;100487.53;;;32.61;60.08
48968;BME280;46511;53.148;8.204;2023-08-06T09:37:04;100485.78;;;33.71;52.26
48968;BME280;46511;53.148;8.204;2023-08-06T09:39:36;100478.72;;;34.71;46.83
48968;BME280;46511;53.148;8.204;2023-08-06T09:42:09;100478.31;;;35.88;42.56
48968;BME280;46511;53.148;8.204;2023-08-06T09:44:40;100487.03;;;35.80;44.38
48968;BME280;46511;53.148;8.204;2023-08-06T09:47:12;100483.41;;;33.74;47.56
48968;BME280;46511;53.148;8.204;2023-08-06T09:49:46;100491.56;;;34.82;46.45
48968;BME280;46511;53.148;8.204;2023-08-06T09:52:18;100486.53;;;35.56;43.09
48968;BME280;46511;53.148;8.204;2023-08-06T09:54:45;100486.69;;;37.62;37.92
48968;BME280;46511;53.148;8.204;2023-08-06T09:57:19;100484.41;;;37.49;39.03
48968;BME280;46511;53.148;8.204;2023-08-06T09:59:51;100486.00;;;35.37;39.95
48968;BME280;46511;53.148;8.204;2023-08-06T10:02:23;100475.59;;;39.05;36.01
48968;BME280;46511;53.148;8.204;2023-08-06T10:04:57;100478.16;;;37.99;37.97
48968;BME280;46511;53.148;8.204;2023-08-06T10:07:30;100469.84;;;37.99;35.85
48968;BME280;46511;53.148;8.204;2023-08-06T10:10:01;100465.63;;;38.99;34.75
48968;BME280;46511;53.148;8.204;2023-08-06T10:12:34;100477.59;;;39.59;33.84
48968;BME280;46511;53.148;8.204;2023-08-06T10:15:20;100471.44;;;39.67;30.79
48968;BME280;46511;53.148;8.204;2023-08-06T10:17:56;100469.63;;;38.32;32.65
48968;BME280;46511;53.148;8.204;2023-08-06T10:20:36;100469.91;;;39.40;31.86
48968;BME280;46511;53.148;8.204;2023-08-06T10:23:07;100472.28;;;38.93;32.70
48968;BME280;46511;53.148;8.204;2023-08-06T10:25:42;100473.16;;;37.08;35.40
48968;BME280;46511;53.148;8.204;2023-08-06T10:28:13;100470.69;;;38.05;37.28
48968;BME280;46511;53.148;8.204;2023-08-06T10:30:46;100474.69;;;36.15;34.79
48968;BME280;46511;53.148;8.204;2023-08-06T10:33:19;100471.13;;;36.88;38.33
48968;BME280;46511;53.148;8.204;2023-08-06T10:35:51;100464.31;;;38.15;34.15
48968;BME280;46511;53.148;8.204;2023-08-06T10:38:32;100461.81;;;38.03;31.39
48968;BME280;46511;53.148;8.204;2023-08-06T10:41:04;100456.44;;;35.87;33.93
48968;BME280;46511;53.148;8.204;2023-08-06T10:43:36;100457.38;;;37.92;32.63
48968;BME280;46511;53.148;8.204;2023-08-06T10:46:11;100450.84;;;42.17;29.44
48968;BME280;46511;53.148;8.204;2023-08-06T10:48:51;100460.41;;;39.47;30.39
48968;BME280;46511;53.148;8.204;2023-08-06T10:51:23;100460.63;;;37.58;32.59
48968;BME280;46511;53.148;8.204;2023-08-06T10:53:54;100466.09;;;37.43;33.50
48968;BME280;46511;53.148;8.204;2023-08-06T10:56:26;100463.50;;;38.35;33.11
48968;BME280;46511;53.148;8.204;2023-08-06T10:58:58;100456.19;;;37.67;31.92
48968;BME280;46511;53.148;8.204;2023-08-06T11:01:29;100453.97;;;37.54;32.75
48968;BME280;46511;53.148;8.204;2023-08-06T11:04:02;100452.63;;;39.49;32.13
48968;BME280;46511;53.148;8.204;2023-08-06T11:06:35;100448.31;;;39.22;31.52
48968;BME280;46511;53.148;8.204;2023-08-06T11:09:07;100448.50;;;38.36;33.99
48968;BME280;46511;53.148;8.204;2023-08-06T11:11:38;100453.50;;;38.44;31.51
48968;BME280;46511;53.148;8.204;2023-08-06T11:14:14;100446.38;;;34.49;39.46
48968;BME280;46511;53.148;8.204;2023-08-06T11:16:46;100447.06;;;34.56;41.02
48968;BME280;46511;53.148;8.204;2023-08-06T11:19:17;100446.47;;;36.87;35.77
48968;BME280;46511;53.148;8.204;2023-08-06T11:21:51;100438.88;;;39.23;32.30
48968;BME280;46511;53.148;8.204;2023-08-06T11:24:25;100443.59;;;36.72;37.23
48968;BME280;46511;53.148;8.204;2023-08-06T11:26:57;100447.16;;;34.83;41.84
48968;BME280;46511;53.148;8.204;2023-08-06T11:29:28;100447.97;;;33.38;50.16
48968;BME280;46511;53.148;8.204;2023-08-06T11:32:05;100451.50;;;30.71;77.15
48968;BME280;46511;53.148;8.204;2023-08-06T11:34:37;100455.25;;;31.32;70.51
48968;BME280;46511;53.148;8.204;2023-08-06T11:37:10;100451.97;;;34.37;48.15
48968;BME280;46511;53.148;8.204;2023-08-06T11:39:44;100453.72;;;32.61;56.24
48968;BME280;46511;53.148;8.204;2023-08-06T11:42:18;100453.50;;;31.37;60.84
48968;BME280;46511;53.148;8.204;2023-08-06T11:44:49;100454.53;;;29.75;73.85
48968;BME280;46511;53.148;8.204;2023-08-06T11:47:21;100461.41;;;30.72;69.62
48968;BME280;46511;53.148;8.204;2023-08-06T11:49:52;100446.66;;;33.40;57.10
48968;BME280;46511;53.148;8.204;2023-08-06T11:52:24;100441.38;;;33.67;52.75
48968;BME280;46511;53.148;8.204;2023-08-06T11:55:03;100446.38;;;35.48;46.96
48968;BME280;46511;53.148;8.204;2023-08-06T11:57:44;100453.03;;;33.17;45.83
48968;BME280;46511;53.148;8.204;2023-08-06T12:00:17;100455.16;;;35.02;44.21
48968;BME280;46511;53.148;8.204;2023-08-06T12:02:53;100456.13;;;36.42;41.01
48968;BME280;46511;53.148;8.204;2023-08-06T12:05:29;100439.34;;;38.35;35.81
48968;BME280;46511;53.148;8.204;2023-08-06T12:08:02;100439.31;;;37.74;34.86
48968;BME280;46511;53.148;8.204;2023-08-06T12:10:34;100442.47;;;36.30;38.92
48968;BME280;46511;53.148;8.204;2023-08-06T12:13:06;100441.28;;;35.89;37.78
48968;BME280;46511;53.148;8.204;2023-08-06T12:15:37;100429.91;;;35.59;38.88
48968;BME280;46511;53.148;8.204;2023-08-06T12:18:08;100426.88;;;37.87;34.15
48968;BME280;46511;53.148;8.204;2023-08-06T12:20:40;100421.06;;;37.00;35.22
48968;BME280;46511;53.148;8.204;2023-08-06T12:23:11;100427.53;;;35.24;41.21
48968;BME280;46511;53.148;8.204;2023-08-06T12:25:46;100433.28;;;34.06;42.55
48968;BME280;46511;53.148;8.204;2023-08-06T12:28:17;100429.56;;;30.89;61.51
48968;BME280;46511;53.148;8.204;2023-08-06T12:30:48;100437.03;;;30.82;60.78
48968;BME280;46511;53.148;8.204;2023-08-06T12:33:20;100426.91;;;30.83;65.59
48968;BME280;46511;53.148;8.204;2023-08-06T12:35:52;100430.81;;;29.24;78.81
48968;BME280;46511;53.148;8.204;2023-08-06T12:38:25;100427.97;;;29.82;74.53
48968;BME280;46511;53.148;8.204;2023-08-06T12:40:57;100428.09;;;32.72;55.54
48968;BME280;46511;53.148;8.204;2023-08-06T12:43:28;100425.34;;;34.26;47.87
48968;BME280;46511;53.148;8.204;2023-08-06T12:45:59;100425.78;;;36.57;39.00
48968;BME280;46511;53.148;8.204;2023-08-06T12:48:30;100421.53;;;36.08;42.89
48968;BME280;46511;53.148;8.204;2023-08-06T12:51:02;100427.34;;;36.85;38.84
48968;BME280;46511;53.148;8.204;2023-08-06T12:53:33;100415.16;;;37.69;34.18
48968;BME280;46511;53.148;8.204;2023-08-06T12:56:04;100425.44;;;36.91;35.25
48968;BME280;46511;53.148;8.204;2023-08-06T12:58:36;100415.44;;;36.85;35.17
48968;BME280;46511;53.148;8.204;2023-08-06T13:01:07;100419.16;;;34.53;38.46
48968;BME280;46511;53.148;8.204;2023-08-06T13:03:39;100415.13;;;34.82;39.32
48968;BME280;46511;53.148;8.204;2023-08-06T13:06:10;100420.22;;;37.05;36.43
48968;BME280;46511;53.148;8.204;2023-08-06T13:08:41;100415.31;;;36.65;34.93